sensor_id;sensor_type;location;lat;lon;timestamp;pressure;altitude;pressure_sealevel;temperature;humidity
79678;BME280;69145;45.544;10.214;2023-04-08T16:11:26;99990.22;;;14.89;58.35
79678;BME280;69145;45.544;10.214;2023-04-08T16:13:52;99994.41;;;14.90;58.52
79678;BME280;69145;45.544;10.214;2023-04-08T16:16:18;100005.63;;;14.91;59.30
79678;BME280;69145;45.544;10.214;2023-04-08T16:18:44;100011.84;;;14.90;58.94
79678;BME280;69145;45.544;10.214;2023-04-08T16:21:10;100014.03;;;14.93;59.31
79678;BME280;69145;45.544;10.214;2023-04-08T16:23:36;100028.06;;;14.92;58.76
79678;BME280;69145;45.544;10.214;2023-04-08T16:26:06;100027.47;;;14.90;59.23
79678;BME280;69145;45.544;10.214;2023-04-08T16:28:34;100026.06;;;14.87;59.18
79678;BME280;69145;45.544;10.214;2023-04-08T16:31:01;100036.72;;;14.86;59.51
79678;BME280;69145;45.544;10.214;2023-04-08T16:33:28;100059.53;;;14.90;60.05
79678;BME280;69145;45.544;10.214;2023-04-08T16:36:00;100067.38;;;14.84;61.67
79678;BME280;69145;45.544;10.214;2023-04-08T16:38:28;100107.22;;;14.91;62.52
79678;BME280;69145;45.544;10.214;2023-04-08T16:40:56;100116.03;;;14.83;63.30
79678;BME280;69145;45.544;10.214;2023-04-08T16:43:22;100142.28;;;14.88;64.76
79678;BME280;69145;45.544;10.214;2023-04-08T16:45:49;100137.28;;;14.87;64.94
79678;BME280;69145;45.544;10.214;2023-04-08T16:48:14;100133.47;;;14.89;65.00
79678;BME280;69145;45.544;10.214;2023-04-08T16:50:40;100141.88;;;14.85;65.32
79678;BME280;69145;45.544;10.214;2023-04-08T16:53:07;100148.09;;;14.90;65.82
79678;BME280;69145;45.544;10.214;2023-04-08T16:55:33;100141.50;;;14.88;65.96
79678;BME280;69145;45.544;10.214;2023-04-08T16:57:59;100145.50;;;14.84;66.82
79678;BME280;69145;45.544;10.214;2023-04-08T17:00:25;100145.72;;;14.82;66.64
79678;BME280;69145;45.544;10.214;2023-04-08T17:02:51;100152.31;;;14.91;66.92
79678;BME280;69145;45.544;10.214;2023-04-08T17:05:26;100145.91;;;14.87;66.09
79678;BME280;69145;45.544;10.214;2023-04-08T17:07:51;100157.91;;;14.88;66.59
79678;BME280;69145;45.544;10.214;2023-04-08T17:10:17;100144.88;;;14.88;66.96
79678;BME280;69145;45.544;10.214;2023-04-08T17:12:46;100132.50;;;14.77;67.65
79678;BME280;69145;45.544;10.214;2023-04-08T17:15:11;100154.72;;;14.93;62.97
79678;BME280;69145;45.544;10.214;2023-04-08T17:17:37;100129.91;;;14.77;65.58
79678;BME280;69145;45.544;10.214;2023-04-08T17:20:03;100133.28;;;14.84;66.26
79678;BME280;69145;45.544;10.214;2023-04-08T17:22:29;100150.31;;;14.93;66.57
79678;BME280;69145;45.544;10.214;2023-04-08T17:24:55;100140.84;;;14.99;65.18
79678;BME280;69145;45.544;10.214;2023-04-08T17:27:20;100150.50;;;14.98;65.18
79678;BME280;69145;45.544;10.214;2023-04-08T17:29:48;100157.31;;;14.93;65.70
79678;BME280;69145;45.544;10.214;2023-04-08T17:32:20;100151.31;;;14.92;63.23
79678;BME280;69145;45.544;10.214;2023-04-08T17:34:45;100157.91;;;14.95;65.39
79678;BME280;69145;45.544;10.214;2023-04-08T17:37:11;100161.94;;;14.91;64.70
79678;BME280;69145;45.544;10.214;2023-04-08T17:39:37;100162.75;;;14.91;63.81
79678;BME280;69145;45.544;10.214;2023-04-08T17:42:05;100171.53;;;14.90;63.95
79678;BME280;69145;45.544;10.214;2023-04-08T17:44:31;100176.16;;;14.88;61.71
79678;BME280;69145;45.544;10.214;2023-04-08T17:46:57;100171.94;;;14.87;62.47
79678;BME280;69145;45.544;10.214;2023-04-08T17:49:23;100187.56;;;14.94;62.79
79678;BME280;69145;45.544;10.214;2023-04-08T17:51:51;100179.97;;;14.86;63.93
79678;BME280;69145;45.544;10.214;2023-04-08T17:54:17;100183.16;;;14.94;62.56
79678;BME280;69145;45.544;10.214;2023-04-08T17:56:42;100183.97;;;14.95;61.32
79678;BME280;69145;45.544;10.214;2023-04-08T17:59:08;100181.56;;;14.93;61.94
79678;BME280;69145;45.544;10.214;2023-04-08T18:01:33;100183.56;;;14.91;62.79
79678;BME280;69145;45.544;10.214;2023-04-08T18:04:01;100178.75;;;14.88;61.68
79678;BME280;69145;45.544;10.214;2023-04-08T18:06:26;100178.56;;;14.90;62.17
79678;BME280;69145;45.544;10.214;2023-04-08T18:08:52;100178.34;;;14.85;61.44
79678;BME280;69145;45.544;10.214;2023-04-08T18:11:17;100188.19;;;14.89;61.42
79678;BME280;69145;45.544;10.214;2023-04-08T18:13:45;100202.41;;;14.87;59.20
79678;BME280;69145;45.544;10.214;2023-04-08T18:16:19;100199.59;;;14.82;58.24
79678;BME280;69145;45.544;10.214;2023-04-08T18:18:54;100198.78;;;14.81;58.88
79678;BME280;69145;45.544;10.214;2023-04-08T18:21:19;100204.22;;;14.86;62.03
79678;BME280;69145;45.544;10.214;2023-04-08T18:23:46;100193.19;;;14.84;61.64
79678;BME280;69145;45.544;10.214;2023-04-08T18:26:11;100203.22;;;14.87;63.51
79678;BME280;69145;45.544;10.214;2023-04-08T18:28:37;100199.78;;;14.87;62.96
79678;BME280;69145;45.544;10.214;2023-04-08T18:31:02;100213.81;;;14.92;65.47
79678;BME280;69145;45.544;10.214;2023-04-08T18:33:28;100210.81;;;14.89;62.76
79678;BME280;69145;45.544;10.214;2023-04-08T18:35:53;100215.63;;;14.85;61.40
79678;BME280;69145;45.544;10.214;2023-04-08T18:38:19;100221.25;;;14.89;62.40
79678;BME280;69145;45.544;10.214;2023-04-08T18:40:44;100222.06;;;14.89;64.17
79678;BME280;69145;45.544;10.214;2023-04-08T18:43:11;100224.44;;;14.91;62.22
79678;BME280;69145;45.544;10.214;2023-04-08T18:45:38;100220.66;;;14.80;60.00
79678;BME280;69145;45.544;10.214;2023-04-08T18:48:04;100225.66;;;14.82;60.71
79678;BME280;69145;45.544;10.214;2023-04-08T18:50:29;100202.03;;;14.70;61.47
79678;BME280;69145;45.544;10.214;2023-04-08T18:52:55;100222.25;;;14.75;65.76
79678;BME280;69145;45.544;10.214;2023-04-08T18:55:25;100233.88;;;14.79;63.03
79678;BME280;69145;45.544;10.214;2023-04-08T18:57:50;100217.63;;;14.64;58.46
79678;BME280;69145;45.544;10.214;2023-04-08T19:00:15;100236.06;;;14.62;56.23
79678;BME280;69145;45.544;10.214;2023-04-08T19:02:41;100236.66;;;14.64;59.33
79678;BME280;69145;45.544;10.214;2023-04-08T19:05:09;100244.28;;;14.72;59.62
79678;BME280;69145;45.544;10.214;2023-04-08T19:07:34;100245.69;;;14.75;58.37
79678;BME280;69145;45.544;10.214;2023-04-08T19:10:00;100257.53;;;14.77;59.86
79678;BME280;69145;45.544;10.214;2023-04-08T19:12:32;100248.09;;;14.70;60.79
79678;BME280;69145;45.544;10.214;2023-04-08T19:14:57;100252.50;;;14.69;58.91
79678;BME280;69145;45.544;10.214;2023-04-08T19:17:23;100261.13;;;14.63;57.45
79678;BME280;69145;45.544;10.214;2023-04-08T19:19:48;100269.94;;;14.75;58.20
79678;BME280;69145;45.544;10.214;2023-04-08T19:22:14;100277.53;;;14.83;57.75
79678;BME280;69145;45.544;10.214;2023-04-08T19:24:40;100283.16;;;14.80;58.49
79678;BME280;69145;45.544;10.214;2023-04-08T19:27:06;100281.97;;;14.89;59.45
79678;BME280;69145;45.544;10.214;2023-04-08T19:29:32;100288.00;;;14.90;58.86
79678;BME280;69145;45.544;10.214;2023-04-08T19:31:58;100275.34;;;14.87;61.91
79678;BME280;69145;45.544;10.214;2023-04-08T19:34:25;100274.94;;;14.77;58.00
79678;BME280;69145;45.544;10.214;2023-04-08T19:36:53;100277.34;;;14.78;57.93
79678;BME280;69145;45.544;10.214;2023-04-08T19:39:19;100292.78;;;14.86;58.92
79678;BME280;69145;45.544;10.214;2023-04-08T19:41:44;100295.41;;;14.86;58.67
79678;BME280;69145;45.544;10.214;2023-04-08T19:44:10;100276.13;;;14.74;57.33
79678;BME280;69145;45.544;10.214;2023-04-08T19:46:36;100272.50;;;14.69;58.84
79678;BME280;69145;45.544;10.214;2023-04-08T19:49:01;100281.78;;;14.84;60.22
79678;BME280;69145;45.544;10.214;2023-04-08T19:51:27;100292.59;;;14.88;58.85
79678;BME280;69145;45.544;10.214;2023-04-08T19:54:02;100248.66;;;14.39;56.80
79678;BME280;69145;45.544;10.214;2023-04-08T19:56:29;100282.75;;;14.70;58.12
79678;BME280;69145;45.544;10.214;2023-04-08T19:59:00;100263.72;;;14.63;58.15
79678;BME280;69145;45.544;10.214;2023-04-08T20:01:26;100283.94;;;14.74;59.45
79678;BME280;69145;45.544;10.214;2023-04-08T20:03:51;100280.94;;;14.64;56.56
79678;BME280;69145;45.544;10.214;2023-04-08T20:06:18;100284.53;;;14.57;56.21
79678;BME280;69145;45.544;10.214;2023-04-08T20:08:44;100286.94;;;14.58;57.58
79678;BME280;69145;45.544;10.214;2023-04-08T20:11:09;100304.19;;;14.79;56.91
79678;BME280;69145;45.544;10.214;2023-04-08T20:13:35;100309.63;;;14.84;58.84
79678;BME280;69145;45.544;10.214;2023-04-08T20:16:01;100307.41;;;14.81;56.92
79678;BME280;69145;45.544;10.214;2023-04-08T20:18:29;100300.59;;;14.80;59.80
79678;BME280;69145;45.544;10.214;2023-04-08T20:20:54;100305.00;;;14.86;60.48
79678;BME280;69145;45.544;10.214;2023-04-08T20:23:20;100308.44;;;14.86;59.52
79678;BME280;69145;45.544;10.214;2023-04-08T20:25:48;100312.63;;;14.87;58.49
79678;BME280;69145;45.544;10.214;2023-04-08T20:28:14;100296.59;;;14.77;58.98
79678;BME280;69145;45.544;10.214;2023-04-08T20:30:39;100307.59;;;14.79;58.25
79678;BME280;69145;45.544;10.214;2023-04-08T20:33:08;100304.16;;;14.72;57.19
79678;BME280;69145;45.544;10.214;2023-04-08T20:35:36;100312.78;;;14.79;59.08
79678;BME280;69145;45.544;10.214;2023-04-08T20:38:02;100308.59;;;14.78;59.96
79678;BME280;69145;45.544;10.214;2023-04-08T20:40:27;100314.41;;;14.74;56.95
79678;BME280;69145;45.544;10.214;2023-04-08T20:42:53;100328.06;;;14.82;59.85
79678;BME280;69145;45.544;10.214;2023-04-08T20:45:18;100309.38;;;14.72;58.03
79678;BME280;69145;45.544;10.214;2023-04-08T20:47:49;100282.13;;;14.49;57.48
79678;BME280;69145;45.544;10.214;2023-04-08T20:50:15;100308.56;;;14.65;57.99
79678;BME280;69145;45.544;10.214;2023-04-08T20:52:42;100327.03;;;14.83;58.58
79678;BME280;69145;45.544;10.214;2023-04-08T20:55:08;100326.22;;;14.83;57.60
79678;BME280;69145;45.544;10.214;2023-04-08T20:57:35;100318.41;;;14.70;56.45
79678;BME280;69145;45.544;10.214;2023-04-08T21:00:01;100307.59;;;14.66;57.78
79678;BME280;69145;45.544;10.214;2023-04-08T21:02:38;100338.66;;;14.81;57.37
79678;BME280;69145;45.544;10.214;2023-04-08T21:05:14;100330.84;;;14.81;57.50
79678;BME280;69145;45.544;10.214;2023-04-08T21:07:40;100322.22;;;14.74;57.50
79678;BME280;69145;45.544;10.214;2023-04-08T21:10:09;100334.47;;;14.86;57.78
79678;BME280;69145;45.544;10.214;2023-04-08T21:12:34;100325.81;;;14.73;56.57
79678;BME280;69145;45.544;10.214;2023-04-08T21:15:11;100327.00;;;14.64;55.36
79678;BME280;69145;45.544;10.214;2023-04-08T21:17:36;100308.94;;;14.49;58.39
79678;BME280;69145;45.544;10.214;2023-04-08T21:20:05;100335.22;;;14.54;55.90
79678;BME280;69145;45.544;10.214;2023-04-08T21:22:30;100325.38;;;14.56;56.33
79678;BME280;69145;45.544;10.214;2023-04-08T21:24:56;100320.16;;;14.50;58.82
79678;BME280;69145;45.544;10.214;2023-04-08T21:27:22;100334.59;;;14.65;59.36
79678;BME280;69145;45.544;10.214;2023-04-08T21:29:53;100316.19;;;14.60;58.49
79678;BME280;69145;45.544;10.214;2023-04-08T21:32:19;100351.50;;;14.82;57.59
79678;BME280;69145;45.544;10.214;2023-04-08T21:34:44;100346.03;;;14.71;56.66
79678;BME280;69145;45.544;10.214;2023-04-08T21:37:13;100355.88;;;14.75;56.36
79678;BME280;69145;45.544;10.214;2023-04-08T21:39:38;100342.63;;;14.57;55.52
79678;BME280;69145;45.544;10.214;2023-04-08T21:42:04;100359.47;;;14.74;57.95
79678;BME280;69145;45.544;10.214;2023-04-08T21:44:30;100357.06;;;14.79;58.74
79678;BME280;69145;45.544;10.214;2023-04-08T21:46:55;100363.50;;;14.70;56.66
79678;BME280;69145;45.544;10.214;2023-04-08T21:49:20;100361.47;;;14.66;56.19
79678;BME280;69145;45.544;10.214;2023-04-08T21:51:46;100365.03;;;14.58;56.23
79678;BME280;69145;45.544;10.214;2023-04-08T21:54:11;100368.59;;;14.44;55.17
79678;BME280;69145;45.544;10.214;2023-04-08T21:56:37;100367.63;;;14.45;56.50
79678;BME280;69145;45.544;10.214;2023-04-08T21:59:02;100370.44;;;14.50;57.01
79678;BME280;69145;45.544;10.214;2023-04-08T22:01:28;100370.84;;;14.47;55.57
79678;BME280;69145;45.544;10.214;2023-04-08T22:03:54;100369.41;;;14.38;55.37
79678;BME280;69145;45.544;10.214;2023-04-08T22:06:20;100364.19;;;14.38;55.17
79678;BME280;69145;45.544;10.214;2023-04-08T22:08:45;100381.69;;;14.64;58.69
79678;BME280;69145;45.544;10.214;2023-04-08T22:11:11;100369.47;;;14.71;60.33
79678;BME280;69145;45.544;10.214;2023-04-08T22:13:36;100367.22;;;14.55;56.11
79678;BME280;69145;45.544;10.214;2023-04-08T22:16:02;100364.44;;;14.56;56.48
79678;BME280;69145;45.544;10.214;2023-04-08T22:18:27;100365.28;;;14.70;59.27
79678;BME280;69145;45.544;10.214;2023-04-08T22:20:52;100370.09;;;14.79;58.95
79678;BME280;69145;45.544;10.214;2023-04-08T22:23:18;100369.53;;;14.84;59.81
79678;BME280;69145;45.544;10.214;2023-04-08T22:25:43;100364.53;;;14.89;59.20
79678;BME280;69145;45.544;10.214;2023-04-08T22:28:08;100365.13;;;14.91;60.92
79678;BME280;69145;45.544;10.214;2023-04-08T22:30:34;100356.47;;;14.64;56.13
79678;BME280;69145;45.544;10.214;2023-04-08T22:33:00;100361.09;;;14.75;57.01
79678;BME280;69145;45.544;10.214;2023-04-08T22:35:25;100359.47;;;14.74;56.10
79678;BME280;69145;45.544;10.214;2023-04-08T22:37:51;100362.28;;;14.73;56.38
79678;BME280;69145;45.544;10.214;2023-04-08T22:40:16;100363.09;;;14.73;56.38
79678;BME280;69145;45.544;10.214;2023-04-08T22:42:42;100350.28;;;14.72;55.99
79678;BME280;69145;45.544;10.214;2023-04-08T22:45:08;100349.25;;;14.66;56.51
79678;BME280;69145;45.544;10.214;2023-04-08T22:47:33;100367.09;;;14.76;56.33
79678;BME280;69145;45.544;10.214;2023-04-08T22:49:59;100365.91;;;14.72;56.97
79678;BME280;69145;45.544;10.214;2023-04-08T22:52:24;100367.50;;;14.73;56.98
79678;BME280;69145;45.544;10.214;2023-04-08T22:54:50;100359.47;;;14.68;56.57
79678;BME280;69145;45.544;10.214;2023-04-08T22:57:15;100358.66;;;14.67;56.85
79678;BME280;69145;45.544;10.214;2023-04-08T22:59:40;100371.88;;;14.66;56.57
79678;BME280;69145;45.544;10.214;2023-04-08T23:02:06;100369.25;;;14.59;56.83
79678;BME280;69145;45.544;10.214;2023-04-08T23:04:31;100352.81;;;14.52;56.74
79678;BME280;69145;45.544;10.214;2023-04-08T23:06:56;100361.47;;;14.59;57.10
79678;BME280;69145;45.544;10.214;2023-04-08T23:09:22;100367.47;;;14.66;56.76
79678;BME280;69145;45.544;10.214;2023-04-08T23:11:49;100346.66;;;14.60;57.29
79678;BME280;69145;45.544;10.214;2023-04-08T23:14:14;100330.38;;;14.45;57.04
79678;BME280;69145;45.544;10.214;2023-04-08T23:16:40;100362.25;;;14.60;56.53
79678;BME280;69145;45.544;10.214;2023-04-08T23:19:05;100353.16;;;14.36;56.18
79678;BME280;69145;45.544;10.214;2023-04-08T23:21:30;100349.25;;;14.19;56.44
79678;BME280;69145;45.544;10.214;2023-04-08T23:23:56;100362.84;;;14.15;56.76
79678;BME280;69145;45.544;10.214;2023-04-08T23:26:21;100356.94;;;14.27;57.91
79678;BME280;69145;45.544;10.214;2023-04-08T23:28:47;100342.13;;;14.28;58.06
79678;BME280;69145;45.544;10.214;2023-04-08T23:31:12;100341.34;;;14.34;57.76
79678;BME280;69145;45.544;10.214;2023-04-08T23:33:41;100359.84;;;14.58;56.83
79678;BME280;69145;45.544;10.214;2023-04-08T23:36:07;100355.84;;;14.62;55.97
79678;BME280;69145;45.544;10.214;2023-04-08T23:38:33;100343.03;;;14.54;56.18
79678;BME280;69145;45.544;10.214;2023-04-08T23:41:05;100338.63;;;14.61;56.97
79678;BME280;69145;45.544;10.214;2023-04-08T23:43:33;100369.28;;;14.72;56.42
79678;BME280;69145;45.544;10.214;2023-04-08T23:46:00;100337.16;;;14.46;56.52
79678;BME280;69145;45.544;10.214;2023-04-08T23:48:26;100358.41;;;14.49;56.17
79678;BME280;69145;45.544;10.214;2023-04-08T23:50:53;100349.75;;;14.42;56.60
79678;BME280;69145;45.544;10.214;2023-04-08T23:53:19;100346.19;;;14.43;56.97
79678;BME280;69145;45.544;10.214;2023-04-08T23:55:57;100347.16;;;14.42;56.93
79678;BME280;69145;45.544;10.214;2023-04-08T23:58:27;100351.78;;;14.40;56.68
